Time;durP1;ratioP1;P1;durP2;ratioP2;P2;SDS_P1;SDS_P2;PMS_P1;PMS_P2;Temp;Humidity;BMP_temperature;BMP_pressure;BME280_temperature;BME280_humidity;BME280_pressure;Samples;Min_cycle;Max_cycle;Signal;HPM_P1;HPM_P2
2021/12/07 00:02:11;;;;;;;4.07;3.63;;;;;;;;;;5060637;28;20236;-83
2021/12/07 00:04:38;;;;;;;4.80;4.10;;;;;;;;;;5075207;28;20225;-83
2021/12/07 00:07:06;;;;;;;4.33;3.93;;;;;;;;;;5063401;28;20231;-83
2021/12/07 00:09:33;;;;;;;4.07;3.67;;;;;;;;;;5070325;28;20693;-83
2021/12/07 00:12:04;;;;;;;3.70;3.40;;;;;;;;;;5072545;28;20217;-82
2021/12/07 00:14:38;;;;;;;4.00;3.60;;;;;;;;;;5062069;28;20221;-82
2021/12/07 00:17:05;;;;;;;3.67;3.37;;;;;;;;;;5054632;28;20224;-82
2021/12/07 00:19:34;;;;;;;3.50;3.20;;;;;;;;;;5057367;28;20284;-82
2021/12/07 00:22:01;;;;;;;3.67;3.37;;;;;;;;;;5067437;28;20232;-83
2021/12/07 00:24:28;;;;;;;3.60;3.27;;;;;;;;;;5056470;28;20218;-83
2021/12/07 00:26:56;;;;;;;4.17;3.40;;;;;;;;;;5038631;28;20293;-83
2021/12/07 00:29:23;;;;;;;3.80;3.50;;;;;;;;;;5054710;28;20237;-82
2021/12/07 00:32:04;;;;;;;3.60;3.30;;;;;;;;;;5059974;28;20215;-82
2021/12/07 00:34:44;;;;;;;3.87;3.57;;;;;;;;;;5063074;28;20220;-82
2021/12/07 00:37:12;;;;;;;4.00;3.60;;;;;;;;;;5058426;28;20193;-83
2021/12/07 00:39:39;;;;;;;3.67;3.30;;;;;;;;;;5064385;28;20206;-83
2021/12/07 00:42:07;;;;;;;4.17;3.77;;;;;;;;;;5056120;28;20214;-83
2021/12/07 00:44:34;;;;;;;4.17;3.77;;;;;;;;;;5056400;28;20251;-83
2021/12/07 00:47:03;;;;;;;4.40;4.00;;;;;;;;;;5063228;28;20208;-83
2021/12/07 00:49:30;;;;;;;4.63;3.77;;;;;;;;;;5065026;28;20262;-83
2021/12/07 00:51:57;;;;;;;4.20;3.80;;;;;;;;;;5071880;28;20221;-83
2021/12/07 00:54:24;;;;;;;4.23;3.70;;;;;;;;;;5068783;28;20237;-83
2021/12/07 00:56:52;;;;;;;4.73;4.23;;;;;;;;;;5076280;28;20228;-83
2021/12/07 00:59:19;;;;;;;4.60;4.20;;;;;;;;;;5055242;28;20224;-84
2021/12/07 01:01:46;;;;;;;5.50;4.70;;;;;;;;;;5067686;28;20228;-83
2021/12/07 01:04:15;;;;;;;5.17;4.67;;;;;;;;;;5097996;22;20304;-81
2021/12/07 01:06:58;;;;;;;5.23;4.70;;;;;;;;;;5081559;28;20212;-81
2021/12/07 01:09:31;;;;;;;5.33;4.53;;;;;;;;;;5080884;28;20204;-82
2021/12/07 01:25:43;;;;;;;5.37;4.20;;;;;;;;;;5040711;28;20205;-81
2021/12/07 01:28:20;;;;;;;4.00;3.60;;;;;;;;;;5065131;28;20258;-82
2021/12/07 01:30:53;;;;;;;3.90;3.50;;;;;;;;;;5060830;28;20212;-82
2021/12/07 01:36:38;;;;;;;3.47;3.17;;;;;;;;;;5050848;28;20221;-82
2021/12/07 01:45:09;;;;;;;3.80;3.40;;;;;;;;;;5002274;28;20222;-82
2021/12/07 01:47:57;;;;;;;3.67;3.23;;;;;;;;;;5060803;28;20207;-82
2021/12/07 01:50:38;;;;;;;3.60;3.20;;;;;;;;;;5065163;28;20197;-82
2021/12/07 02:01:21;;;;;;;3.53;3.23;;;;;;;;;;5038003;28;20198;-82
2021/12/07 02:03:49;;;;;;;3.87;3.50;;;;;;;;;;5063929;28;20311;-83
2021/12/07 02:06:17;;;;;;;3.53;3.23;;;;;;;;;;5064405;28;20220;-83
2021/12/07 02:08:45;;;;;;;4.53;3.57;;;;;;;;;;5064062;28;20198;-82
2021/12/07 02:11:12;;;;;;;3.50;3.20;;;;;;;;;;5064174;28;20230;-82
2021/12/07 02:16:30;;;;;;;3.93;3.53;;;;;;;;;;5037526;28;20205;-82
2021/12/07 02:18:57;;;;;;;3.80;3.40;;;;;;;;;;5065446;28;20232;-82
2021/12/07 02:21:27;;;;;;;5.07;3.40;;;;;;;;;;5064299;28;20719;-82
2021/12/07 02:23:55;;;;;;;3.73;3.43;;;;;;;;;;5064712;28;20606;-82
2021/12/07 02:26:22;;;;;;;3.50;3.20;;;;;;;;;;5064708;28;20243;-83
2021/12/07 02:28:52;;;;;;;4.30;3.53;;;;;;;;;;5064643;28;20268;-82
2021/12/07 02:31:20;;;;;;;4.70;3.63;;;;;;;;;;5065540;28;20201;-82
2021/12/07 02:33:48;;;;;;;4.53;4.03;;;;;;;;;;5065492;28;20225;-82
2021/12/07 02:36:15;;;;;;;4.73;4.00;;;;;;;;;;5066152;28;20254;-82
2021/12/07 02:38:44;;;;;;;3.37;3.07;;;;;;;;;;5067683;28;20229;-82
2021/12/07 02:41:11;;;;;;;4.13;3.77;;;;;;;;;;5067847;28;20231;-82
2021/12/07 02:43:38;;;;;;;4.00;3.43;;;;;;;;;;5066253;28;20221;-82
2021/12/07 02:46:05;;;;;;;4.67;3.87;;;;;;;;;;5067611;28;20236;-82
2021/12/07 02:48:33;;;;;;;4.43;3.90;;;;;;;;;;5067690;28;20219;-82
2021/12/07 02:51:01;;;;;;;4.23;3.33;;;;;;;;;;5068300;28;20208;-83
2021/12/07 02:53:29;;;;;;;4.27;3.87;;;;;;;;;;5068699;28;20244;-82
2021/12/07 02:55:59;;;;;;;3.70;3.23;;;;;;;;;;5068895;28;20220;-82
2021/12/07 02:58:26;;;;;;;4.50;3.80;;;;;;;;;;5073115;28;20185;-82
2021/12/07 03:01:00;;;;;;;3.57;3.20;;;;;;;;;;5071854;28;20197;-82
2021/12/07 03:03:31;;;;;;;4.20;3.57;;;;;;;;;;5065209;28;20221;-82
2021/12/07 03:06:09;;;;;;;3.93;3.27;;;;;;;;;;5053291;28;20212;-82
2021/12/07 03:27:55;;;;;;;3.47;3.13;;;;;;;;;;5059783;28;20288;-82
2021/12/07 03:30:22;;;;;;;3.33;3.03;;;;;;;;;;5059444;28;20205;-81
2021/12/07 03:32:49;;;;;;;2.90;2.70;;;;;;;;;;5064006;28;20258;-81
2021/12/07 03:35:17;;;;;;;4.60;3.20;;;;;;;;;;5064825;28;20249;-81
2021/12/07 03:37:44;;;;;;;3.60;3.30;;;;;;;;;;5064916;28;20212;-82
2021/12/07 03:40:12;;;;;;;3.40;2.93;;;;;;;;;;5064522;28;20208;-82
2021/12/07 03:42:40;;;;;;;3.40;2.77;;;;;;;;;;5064184;28;20237;-82
2021/12/07 03:45:10;;;;;;;3.30;3.00;;;;;;;;;;5063761;28;20197;-82
2021/12/07 03:47:37;;;;;;;3.70;3.30;;;;;;;;;;5064072;28;20716;-82
2021/12/07 03:50:04;;;;;;;3.60;3.00;;;;;;;;;;5064150;28;20221;-82
2021/12/07 03:52:32;;;;;;;4.40;3.20;;;;;;;;;;5064034;28;20204;-82
2021/12/07 03:54:59;;;;;;;3.53;3.00;;;;;;;;;;5062792;28;20221;-83
2021/12/07 03:57:26;;;;;;;4.33;3.20;;;;;;;;;;5058327;28;20210;-82
2021/12/07 03:59:53;;;;;;;3.50;3.07;;;;;;;;;;5064262;28;20197;-82
2021/12/07 04:02:22;;;;;;;3.47;3.17;;;;;;;;;;5064394;28;20205;-82
2021/12/07 04:04:57;;;;;;;5.13;3.23;;;;;;;;;;5064408;28;20233;-82
2021/12/07 04:07:25;;;;;;;4.97;4.00;;;;;;;;;;5063952;28;20200;-82
2021/12/07 04:09:52;;;;;;;5.77;3.50;;;;;;;;;;5064416;28;20197;-82
2021/12/07 04:12:19;;;;;;;4.03;2.93;;;;;;;;;;5063477;28;20224;-81
2021/12/07 04:14:46;;;;;;;3.83;3.00;;;;;;;;;;5063947;28;20220;-82
2021/12/07 04:17:13;;;;;;;3.63;2.60;;;;;;;;;;5064218;28;20204;-82
2021/12/07 04:19:42;;;;;;;3.30;2.90;;;;;;;;;;5064498;28;20201;-82
2021/12/07 04:22:09;;;;;;;5.33;3.07;;;;;;;;;;5063821;28;20204;-82
2021/12/07 04:24:36;;;;;;;4.17;2.83;;;;;;;;;;5065202;28;20231;-82
2021/12/07 04:27:05;;;;;;;7.13;3.80;;;;;;;;;;5068691;28;20224;-82
2021/12/07 04:29:32;;;;;;;4.73;2.70;;;;;;;;;;5068139;28;20209;-82
2021/12/07 04:31:59;;;;;;;3.63;2.80;;;;;;;;;;5067844;28;20189;-82
2021/12/07 04:34:26;;;;;;;3.40;2.90;;;;;;;;;;5068327;28;20241;-82
2021/12/07 04:36:55;;;;;;;5.23;3.10;;;;;;;;;;5067608;28;20236;-82
2021/12/07 04:39:22;;;;;;;5.50;3.00;;;;;;;;;;5068476;28;20217;-82
2021/12/07 04:41:51;;;;;;;4.13;3.00;;;;;;;;;;5067581;28;20220;-82
2021/12/07 04:44:19;;;;;;;3.63;3.03;;;;;;;;;;5066630;28;20240;-82
2021/12/07 04:46:55;;;;;;;4.10;3.33;;;;;;;;;;5068195;28;20205;-82
2021/12/07 04:49:53;;;;;;;6.00;3.70;;;;;;;;;;5068071;28;20200;-82
2021/12/07 04:58:02;;;;;;;4.73;3.00;;;;;;;;;;5029764;28;20193;-82
2021/12/07 05:00:30;;;;;;;3.60;2.47;;;;;;;;;;5062273;28;20232;-81
2021/12/07 05:03:03;;;;;;;2.90;2.60;;;;;;;;;;5061586;28;20217;-81
2021/12/07 05:05:34;;;;;;;5.40;2.63;;;;;;;;;;5061327;28;20232;-82
2021/12/07 05:08:06;;;;;;;5.27;2.73;;;;;;;;;;5061275;28;20208;-81
2021/12/07 05:10:38;;;;;;;4.67;2.90;;;;;;;;;;5054516;28;20254;-82
2021/12/07 05:13:27;;;;;;;3.67;3.13;;;;;;;;;;5057560;28;20236;-82
2021/12/07 05:16:05;;;;;;;5.63;3.17;;;;;;;;;;5059956;28;20223;-81
2021/12/07 05:24:06;;;;;;;5.17;3.40;;;;;;;;;;5058804;28;20220;-82
2021/12/07 05:40:26;;;;;;;6.60;4.10;;;;;;;;;;5029934;28;20200;-81
2021/12/07 05:42:53;;;;;;;10.93;4.27;;;;;;;;;;5058789;28;20213;-81
2021/12/07 05:45:23;;;;;;;7.53;4.10;;;;;;;;;;5059131;28;20215;-83
2021/12/07 05:47:51;;;;;;;6.23;3.80;;;;;;;;;;5055555;28;20205;-83
2021/12/07 05:50:21;;;;;;;10.67;4.50;;;;;;;;;;5058126;28;20202;-83
2021/12/07 05:52:48;;;;;;;8.83;4.20;;;;;;;;;;5060222;28;20242;-81
2021/12/07 05:55:15;;;;;;;7.63;4.20;;;;;;;;;;5055150;28;20197;-81
2021/12/07 05:57:44;;;;;;;8.87;4.63;;;;;;;;;;5060226;28;20198;-82
2021/12/07 06:00:24;;;;;;;7.50;4.27;;;;;;;;;;5065058;28;20263;-85
2021/12/07 06:02:54;;;;;;;7.77;4.63;;;;;;;;;;5054278;28;20201;-85
2021/12/07 06:05:24;;;;;;;8.77;4.70;;;;;;;;;;5063855;28;20208;-89
2021/12/07 06:07:51;;;;;;;8.90;4.43;;;;;;;;;;5063727;28;20202;-82
2021/12/07 06:10:20;;;;;;;9.00;4.40;;;;;;;;;;5060306;28;20269;-81
2021/12/07 06:12:48;;;;;;;6.63;4.70;;;;;;;;;;5060583;28;20296;-83
2021/12/07 06:15:18;;;;;;;6.33;4.07;;;;;;;;;;5060546;28;20205;-82
2021/12/07 06:17:46;;;;;;;9.90;4.07;;;;;;;;;;5061500;28;20212;-83
2021/12/07 06:20:13;;;;;;;7.57;4.20;;;;;;;;;;5058851;28;20232;-81
2021/12/07 06:22:41;;;;;;;5.90;3.90;;;;;;;;;;5057315;28;20217;-83
2021/12/07 06:25:10;;;;;;;6.53;3.83;;;;;;;;;;5055222;28;20276;-82
2021/12/07 06:27:38;;;;;;;9.10;4.50;;;;;;;;;;5056730;28;20202;-81
2021/12/07 06:30:08;;;;;;;10.00;4.13;;;;;;;;;;5053403;28;20263;-83
2021/12/07 06:32:36;;;;;;;6.40;3.60;;;;;;;;;;5054826;28;20205;-81
2021/12/07 06:35:03;;;;;;;5.13;3.77;;;;;;;;;;5049851;28;20212;-82
2021/12/07 06:37:30;;;;;;;10.67;4.43;;;;;;;;;;5051818;28;20224;-85
2021/12/07 06:39:58;;;;;;;6.53;3.90;;;;;;;;;;5057149;28;20225;-82
2021/12/07 06:42:25;;;;;;;5.03;3.70;;;;;;;;;;5057665;28;20255;-83
2021/12/07 06:44:52;;;;;;;7.93;4.10;;;;;;;;;;5061475;28;20312;-82
2021/12/07 06:47:21;;;;;;;7.43;3.63;;;;;;;;;;5051900;28;20231;-82
2021/12/07 06:49:49;;;;;;;6.17;3.23;;;;;;;;;;5052108;28;20265;-81
2021/12/07 06:52:16;;;;;;;4.20;2.70;;;;;;;;;;5047229;28;20235;-81
2021/12/07 06:54:44;;;;;;;6.87;3.20;;;;;;;;;;5054976;28;20308;-82
2021/12/07 06:57:11;;;;;;;5.90;2.83;;;;;;;;;;5050069;28;20244;-81
2021/12/07 06:59:38;;;;;;;7.27;3.10;;;;;;;;;;5053971;28;20251;-81
2021/12/07 07:02:05;;;;;;;4.47;2.93;;;;;;;;;;5056077;28;20205;-82
2021/12/07 07:04:34;;;;;;;5.37;3.03;;;;;;;;;;5048350;28;20236;-82
2021/12/07 07:07:01;;;;;;;6.33;3.53;;;;;;;;;;5105026;22;20709;-83
2021/12/07 07:09:29;;;;;;;9.33;3.10;;;;;;;;;;5089766;28;20197;-82
2021/12/07 07:11:56;;;;;;;5.67;3.03;;;;;;;;;;5085335;28;20228;-85
2021/12/07 07:14:23;;;;;;;5.33;4.00;;;;;;;;;;5086738;28;20223;-82
2021/12/07 07:16:50;;;;;;;7.20;4.93;;;;;;;;;;5090935;28;20296;-82
2021/12/07 07:19:18;;;;;;;7.17;5.77;;;;;;;;;;5100233;28;20204;-85
2021/12/07 07:21:46;;;;;;;10.20;6.40;;;;;;;;;;5093159;28;20216;-84
2021/12/07 07:24:14;;;;;;;8.53;4.80;;;;;;;;;;5088335;28;20200;-84
2021/12/07 07:26:41;;;;;;;7.77;4.37;;;;;;;;;;5088221;28;20235;-84
2021/12/07 07:29:08;;;;;;;7.20;4.50;;;;;;;;;;5091017;28;20228;-84
2021/12/07 07:31:40;;;;;;;5.40;3.80;;;;;;;;;;5093520;28;20200;-84
2021/12/07 07:34:07;;;;;;;8.00;4.60;;;;;;;;;;5094349;28;20197;-81
2021/12/07 07:36:34;;;;;;;7.07;3.53;;;;;;;;;;5091603;28;20231;-84
2021/12/07 07:39:04;;;;;;;5.80;3.73;;;;;;;;;;5091473;28;20234;-85
2021/12/07 07:41:31;;;;;;;5.67;3.17;;;;;;;;;;5089357;28;20287;-83
2021/12/07 07:43:58;;;;;;;5.80;3.43;;;;;;;;;;5087671;28;20219;-83
2021/12/07 07:46:26;;;;;;;9.67;4.47;;;;;;;;;;5091870;28;20273;-84
2021/12/07 07:48:53;;;;;;;5.67;2.57;;;;;;;;;;5084700;28;20264;-83
2021/12/07 07:51:20;;;;;;;6.43;2.70;;;;;;;;;;5092738;28;20253;-84
2021/12/07 07:53:48;;;;;;;4.83;2.70;;;;;;;;;;5084657;28;20207;-85
2021/12/07 07:56:18;;;;;;;7.80;2.80;;;;;;;;;;5086598;28;20227;-86
2021/12/07 07:58:45;;;;;;;5.97;2.80;;;;;;;;;;5086885;28;20212;-84
2021/12/07 08:01:13;;;;;;;5.60;2.57;;;;;;;;;;5085034;28;20261;-84
2021/12/07 08:03:40;;;;;;;6.37;2.80;;;;;;;;;;5078788;28;20445;-82
2021/12/07 08:06:07;;;;;;;7.87;2.40;;;;;;;;;;5083426;28;20224;-85
2021/12/07 08:08:35;;;;;;;7.33;2.73;;;;;;;;;;5088969;28;20196;-81
2021/12/07 08:11:02;;;;;;;7.27;2.83;;;;;;;;;;5092823;28;20196;-84
2021/12/07 08:13:31;;;;;;;5.50;2.50;;;;;;;;;;5094051;28;20231;-84
2021/12/07 08:15:59;;;;;;;6.77;2.60;;;;;;;;;;5083821;28;20300;-84
2021/12/07 08:18:26;;;;;;;6.73;2.47;;;;;;;;;;5085165;28;20197;-84
2021/12/07 08:20:54;;;;;;;9.47;2.40;;;;;;;;;;5088708;28;20282;-84
2021/12/07 08:23:21;;;;;;;11.53;2.80;;;;;;;;;;5088595;28;20202;-83
2021/12/07 08:25:49;;;;;;;7.17;2.20;;;;;;;;;;5088307;28;20239;-84
2021/12/07 08:28:19;;;;;;;4.57;2.37;;;;;;;;;;5094167;28;20229;-83
2021/12/07 08:30:48;;;;;;;6.43;2.20;;;;;;;;;;5084845;28;20249;-86
2021/12/07 08:33:16;;;;;;;5.77;2.30;;;;;;;;;;5089042;28;20192;-84
2021/12/07 08:35:43;;;;;;;6.83;2.40;;;;;;;;;;5101756;28;20197;-85
2021/12/07 08:38:10;;;;;;;7.20;2.20;;;;;;;;;;5082893;28;20274;-86
2021/12/07 08:40:39;;;;;;;5.40;2.23;;;;;;;;;;5092332;28;20253;-82
2021/12/07 08:43:09;;;;;;;5.47;2.07;;;;;;;;;;5096295;28;20256;-86
2021/12/07 08:45:37;;;;;;;4.60;2.10;;;;;;;;;;5091966;28;20202;-86
2021/12/07 08:48:06;;;;;;;3.90;2.10;;;;;;;;;;5093578;28;20214;-82
2021/12/07 08:50:35;;;;;;;4.83;1.97;;;;;;;;;;5093820;28;20226;-83
2021/12/07 08:53:07;;;;;;;4.07;1.93;;;;;;;;;;5082538;28;20212;-83
2021/12/07 09:01:07;;;;;;;5.67;2.07;;;;;;;;;;5092972;28;20199;-84
2021/12/07 09:03:36;;;;;;;3.83;2.00;;;;;;;;;;5090140;28;20235;-84
2021/12/07 09:06:03;;;;;;;3.90;2.10;;;;;;;;;;5089639;28;20300;-84
2021/12/07 09:08:30;;;;;;;3.67;1.87;;;;;;;;;;5093803;28;20223;-84
2021/12/07 09:10:58;;;;;;;4.77;2.17;;;;;;;;;;5089441;28;20200;-84
2021/12/07 09:13:27;;;;;;;3.43;2.37;;;;;;;;;;5102480;28;20200;-84
2021/12/07 09:15:55;;;;;;;4.67;1.93;;;;;;;;;;5105347;28;20251;-84
2021/12/07 09:18:22;;;;;;;3.07;1.67;;;;;;;;;;5101727;28;20313;-84
2021/12/07 09:20:53;;;;;;;5.50;1.80;;;;;;;;;;5098070;28;20191;-81
2021/12/07 09:23:21;;;;;;;4.20;2.10;;;;;;;;;;5101294;28;20277;-83
2021/12/07 09:25:48;;;;;;;5.50;1.80;;;;;;;;;;5101039;28;20236;-83
2021/12/07 09:28:16;;;;;;;3.77;1.60;;;;;;;;;;5098704;28;20196;-83
2021/12/07 09:30:50;;;;;;;4.20;1.60;;;;;;;;;;5102296;28;20200;-85
2021/12/07 09:33:18;;;;;;;4.50;1.60;;;;;;;;;;5100858;28;20294;-83
2021/12/07 09:35:45;;;;;;;4.17;1.83;;;;;;;;;;5093421;28;20345;-84
2021/12/07 09:38:14;;;;;;;3.83;1.53;;;;;;;;;;5102351;28;20212;-84
2021/12/07 09:40:42;;;;;;;4.03;1.93;;;;;;;;;;5099476;28;20212;-83
2021/12/07 09:43:09;;;;;;;5.07;2.03;;;;;;;;;;5090828;28;20196;-81
2021/12/07 09:45:37;;;;;;;3.37;1.80;;;;;;;;;;5093983;28;20230;-85
2021/12/07 09:48:05;;;;;;;5.57;1.90;;;;;;;;;;5097748;28;20196;-84
2021/12/07 09:50:34;;;;;;;2.90;1.57;;;;;;;;;;5097607;28;20233;-85
2021/12/07 09:53:01;;;;;;;4.93;2.33;;;;;;;;;;5089065;28;20236;-85
2021/12/07 09:55:31;;;;;;;5.37;2.00;;;;;;;;;;5090179;28;20208;-84
2021/12/07 09:58:08;;;;;;;2.03;1.50;;;;;;;;;;5098735;28;20274;-86
2021/12/07 10:00:37;;;;;;;6.23;2.00;;;;;;;;;;5089261;28;20215;-84
2021/12/07 10:03:05;;;;;;;4.10;1.63;;;;;;;;;;5093795;28;20207;-83
2021/12/07 10:05:34;;;;;;;3.27;1.87;;;;;;;;;;5100620;28;20225;-82
2021/12/07 10:08:03;;;;;;;3.40;1.80;;;;;;;;;;5094341;28;20200;-83
2021/12/07 10:10:33;;;;;;;3.10;1.47;;;;;;;;;;5090954;28;20208;-83
2021/12/07 10:13:00;;;;;;;2.03;1.57;;;;;;;;;;5087628;28;20208;-83
2021/12/07 10:15:28;;;;;;;4.83;1.67;;;;;;;;;;5086721;28;20250;-83
2021/12/07 10:18:03;;;;;;;3.93;1.70;;;;;;;;;;5090446;28;20200;-83
2021/12/07 10:20:38;;;;;;;2.50;1.57;;;;;;;;;;5089187;28;20196;-84
2021/12/07 10:23:06;;;;;;;2.40;1.60;;;;;;;;;;5086056;28;20215;-82
2021/12/07 10:25:35;;;;;;;3.33;1.60;;;;;;;;;;5088399;28;20200;-82
2021/12/07 10:28:03;;;;;;;5.37;2.07;;;;;;;;;;5081278;28;20287;-82
2021/12/07 10:30:30;;;;;;;5.00;1.60;;;;;;;;;;5081350;28;20220;-82
2021/12/07 10:32:59;;;;;;;5.40;1.93;;;;;;;;;;5081932;28;20200;-83
2021/12/07 10:35:30;;;;;;;4.03;1.80;;;;;;;;;;5082954;28;20204;-82
2021/12/07 10:38:07;;;;;;;3.93;1.60;;;;;;;;;;5083430;28;20284;-83
2021/12/07 10:40:36;;;;;;;4.90;1.73;;;;;;;;;;5088376;28;20260;-80
2021/12/07 10:43:04;;;;;;;3.83;1.70;;;;;;;;;;5082761;28;20246;-85
2021/12/07 10:45:31;;;;;;;3.17;1.63;;;;;;;;;;5086849;28;20200;-83
2021/12/07 10:47:59;;;;;;;6.37;2.10;;;;;;;;;;5086882;28;20231;-83
2021/12/07 10:50:26;;;;;;;4.77;1.90;;;;;;;;;;5092664;28;20203;-81
2021/12/07 10:52:58;;;;;;;2.13;1.80;;;;;;;;;;5095156;28;20290;-80
2021/12/07 10:55:26;;;;;;;3.77;1.70;;;;;;;;;;5097007;28;20611;-81
2021/12/07 10:57:56;;;;;;;4.97;1.97;;;;;;;;;;5091580;28;20312;-83
2021/12/07 11:00:25;;;;;;;2.77;1.40;;;;;;;;;;5108311;28;20204;-85
2021/12/07 11:02:54;;;;;;;3.03;1.40;;;;;;;;;;5114497;28;20199;-85
2021/12/07 11:05:23;;;;;;;5.20;1.40;;;;;;;;;;5113996;28;20211;-83
2021/12/07 11:07:51;;;;;;;4.70;1.87;;;;;;;;;;5104328;28;20193;-85
2021/12/07 11:10:23;;;;;;;3.97;1.50;;;;;;;;;;5109534;28;20203;-84
2021/12/07 11:12:58;;;;;;;6.93;1.90;;;;;;;;;;5098733;28;20199;-85
2021/12/07 11:15:28;;;;;;;3.93;1.63;;;;;;;;;;5092211;28;20248;-82
2021/12/07 11:17:57;;;;;;;5.40;1.80;;;;;;;;;;5100399;28;20220;-83
2021/12/07 11:20:25;;;;;;;2.87;1.40;;;;;;;;;;5086411;28;20230;-83
2021/12/07 11:22:54;;;;;;;3.63;1.73;;;;;;;;;;5091736;28;20200;-83
2021/12/07 11:31:13;;;;;;;3.00;1.60;;;;;;;;;;5094258;28;20199;-81
2021/12/07 11:33:40;;;;;;;3.90;1.60;;;;;;;;;;5095844;28;20282;-83
2021/12/07 11:36:15;;;;;;;3.13;1.63;;;;;;;;;;5097419;28;20239;-84
2021/12/07 11:38:42;;;;;;;3.93;1.40;;;;;;;;;;5101034;28;20258;-85
2021/12/07 11:41:18;;;;;;;3.50;1.43;;;;;;;;;;5096482;28;20199;-84
2021/12/07 11:43:53;;;;;;;4.00;1.90;;;;;;;;;;5095689;28;20249;-83
2021/12/07 11:46:24;;;;;;;4.90;1.60;;;;;;;;;;5098539;28;20212;-85
2021/12/07 11:49:04;;;;;;;3.47;1.53;;;;;;;;;;5096973;28;20195;-86
2021/12/07 11:51:34;;;;;;;4.87;2.00;;;;;;;;;;5089662;28;20219;-85
2021/12/07 11:56:51;;;;;;;3.97;1.60;;;;;;;;;;5091269;28;20215;-87
2021/12/07 12:02:34;;;;;;;4.50;1.70;;;;;;;;;;5047487;28;20199;-80
2021/12/07 12:08:10;;;;;;;7.57;1.60;;;;;;;;;;5091083;28;20211;-83
2021/12/07 12:10:56;;;;;;;5.43;1.73;;;;;;;;;;5092756;28;20192;-82
2021/12/07 12:13:27;;;;;;;4.83;1.67;;;;;;;;;;5094448;28;20231;-84
2021/12/07 12:16:03;;;;;;;2.33;1.57;;;;;;;;;;5092692;28;20219;-82
2021/12/07 12:18:38;;;;;;;8.00;1.77;;;;;;;;;;5088495;28;20230;-80
2021/12/07 12:21:13;;;;;;;3.90;1.47;;;;;;;;;;5091030;28;20213;-78
2021/12/07 12:23:51;;;;;;;7.20;1.87;;;;;;;;;;5082651;28;20227;-81
2021/12/07 12:26:25;;;;;;;6.07;2.00;;;;;;;;;;5085847;28;20227;-81
2021/12/07 12:28:53;;;;;;;9.93;2.10;;;;;;;;;;5082350;28;20223;-81
2021/12/07 12:31:55;;;;;;;6.33;1.60;;;;;;;;;;5093564;28;20227;-86
2021/12/07 12:34:46;;;;;;;6.43;2.00;;;;;;;;;;5087074;28;20218;-79
2021/12/07 12:37:18;;;;;;;8.20;2.37;;;;;;;;;;5086694;28;20220;-81
2021/12/07 12:42:32;;;;;;;2.60;1.60;;;;;;;;;;5090515;28;20208;-81
2021/12/07 12:45:03;;;;;;;3.20;1.63;;;;;;;;;;5095101;28;20196;-79
2021/12/07 12:47:36;;;;;;;7.53;2.13;;;;;;;;;;5093285;28;20247;-81
2021/12/07 12:50:14;;;;;;;8.97;2.80;;;;;;;;;;5095450;28;20211;-82
2021/12/07 12:52:46;;;;;;;5.10;2.03;;;;;;;;;;5090638;28;20199;-78
2021/12/07 12:57:59;;;;;;;5.13;2.07;;;;;;;;;;5077546;22;20240;-83
2021/12/07 13:00:47;;;;;;;3.53;1.77;;;;;;;;;;5074935;28;20212;-83
2021/12/07 13:03:17;;;;;;;3.10;1.67;;;;;;;;;;5072217;28;20262;-85
2021/12/07 13:08:21;;;;;;;6.47;2.97;;;;;;;;;;5052380;28;20231;-90
2021/12/07 13:11:00;;;;;;;5.43;1.90;;;;;;;;;;5055219;28;20273;-89
2021/12/07 13:13:31;;;;;;;3.57;1.47;;;;;;;;;;5055653;28;20209;-85
2021/12/07 13:15:58;;;;;;;4.13;1.70;;;;;;;;;;5057255;28;20197;-86
2021/12/07 13:18:32;;;;;;;4.60;2.00;;;;;;;;;;5052722;28;20228;-86
2021/12/07 13:20:59;;;;;;;3.37;1.60;;;;;;;;;;5053944;28;20233;-86
2021/12/07 13:23:31;;;;;;;5.33;1.60;;;;;;;;;;5056940;28;20237;-86
2021/12/07 13:25:58;;;;;;;16.73;2.50;;;;;;;;;;5053376;28;20268;-86
2021/12/07 13:28:27;;;;;;;3.90;1.73;;;;;;;;;;5054488;28;20220;-85
2021/12/07 13:30:58;;;;;;;3.37;1.30;;;;;;;;;;5056321;28;20193;-85
2021/12/07 13:33:31;;;;;;;5.83;1.67;;;;;;;;;;5057417;28;20209;-86
2021/12/07 13:35:59;;;;;;;4.87;1.77;;;;;;;;;;5060279;28;20212;-86
2021/12/07 13:38:27;;;;;;;3.07;1.50;;;;;;;;;;5057951;28;20245;-85
2021/12/07 13:41:15;;;;;;;6.33;1.70;;;;;;;;;;5050562;28;20237;-86
2021/12/07 13:43:45;;;;;;;6.13;1.77;;;;;;;;;;5050781;28;20288;-86
2021/12/07 13:46:14;;;;;;;7.07;1.80;;;;;;;;;;5057978;28;20224;-85
2021/12/07 13:48:42;;;;;;;5.30;1.60;;;;;;;;;;5054468;28;20198;-87
2021/12/07 13:51:10;;;;;;;5.93;1.63;;;;;;;;;;5060243;28;20232;-85
2021/12/07 13:53:37;;;;;;;2.73;1.40;;;;;;;;;;5047794;28;20209;-85
2021/12/07 13:56:08;;;;;;;3.53;1.70;;;;;;;;;;5055710;28;20236;-84
2021/12/07 13:58:50;;;;;;;4.47;1.50;;;;;;;;;;5056643;28;20221;-86
2021/12/07 14:01:19;;;;;;;3.23;1.50;;;;;;;;;;5055070;28;20233;-89
2021/12/07 14:03:47;;;;;;;7.23;2.27;;;;;;;;;;5047266;28;20213;-87
2021/12/07 14:06:16;;;;;;;6.97;2.23;;;;;;;;;;5054470;28;20271;-90
2021/12/07 14:08:43;;;;;;;10.23;2.23;;;;;;;;;;5056803;28;20202;-87
2021/12/07 14:11:13;;;;;;;4.53;1.80;;;;;;;;;;5057099;28;20205;-84
2021/12/07 14:13:41;;;;;;;3.97;1.90;;;;;;;;;;5059489;28;20292;-80
2021/12/07 14:16:09;;;;;;;7.77;2.00;;;;;;;;;;5059495;28;20231;-81
2021/12/07 14:18:38;;;;;;;6.10;1.80;;;;;;;;;;5059248;28;20217;-83
2021/12/07 14:21:07;;;;;;;3.87;1.60;;;;;;;;;;5059748;28;20209;-80
2021/12/07 14:23:36;;;;;;;5.70;1.70;;;;;;;;;;5057020;28;20201;-82
2021/12/07 14:26:07;;;;;;;3.47;1.80;;;;;;;;;;5048738;28;20269;-82
2021/12/07 14:28:36;;;;;;;2.73;1.60;;;;;;;;;;5056306;28;20255;-82
2021/12/07 14:31:06;;;;;;;7.23;1.93;;;;;;;;;;5058489;28;20209;-86
2021/12/07 14:33:38;;;;;;;5.80;1.87;;;;;;;;;;5060404;28;20300;-85
2021/12/07 14:36:06;;;;;;;2.57;1.77;;;;;;;;;;5061279;28;20294;-84
2021/12/07 14:38:34;;;;;;;3.90;1.43;;;;;;;;;;5059514;28;20294;-84
2021/12/07 14:41:03;;;;;;;4.53;2.10;;;;;;;;;;5059790;28;20213;-86
2021/12/07 14:43:31;;;;;;;3.43;1.80;;;;;;;;;;5057983;28;20205;-83
2021/12/07 14:46:02;;;;;;;6.50;2.40;;;;;;;;;;5060946;28;20233;-86
2021/12/07 14:48:37;;;;;;;18.97;2.73;;;;;;;;;;5052024;28;20205;-86
2021/12/07 14:51:08;;;;;;;9.13;2.27;;;;;;;;;;5052672;28;20247;-89
2021/12/07 14:53:37;;;;;;;4.97;1.80;;;;;;;;;;5053869;28;20228;-86
2021/12/07 14:56:07;;;;;;;9.80;1.90;;;;;;;;;;5046256;28;20194;-86
2021/12/07 14:58:35;;;;;;;4.47;2.07;;;;;;;;;;5053075;28;20267;-84
2021/12/07 15:01:03;;;;;;;4.13;1.80;;;;;;;;;;5050006;28;20277;-83
2021/12/07 15:03:37;;;;;;;4.70;1.43;;;;;;;;;;5057545;28;20206;-83
2021/12/07 15:06:06;;;;;;;3.30;1.80;;;;;;;;;;5053841;28;20196;-82
2021/12/07 15:08:38;;;;;;;6.40;2.00;;;;;;;;;;5060130;28;20212;-82
2021/12/07 15:11:07;;;;;;;9.50;3.73;;;;;;;;;;5060048;28;20266;-82
2021/12/07 15:13:35;;;;;;;10.40;2.70;;;;;;;;;;5061519;28;20243;-82
2021/12/07 15:16:06;;;;;;;13.93;2.63;;;;;;;;;;5061113;28;20208;-83
2021/12/07 15:18:38;;;;;;;11.07;3.37;;;;;;;;;;5055526;28;20243;-82
2021/12/07 15:21:07;;;;;;;12.43;3.03;;;;;;;;;;5058977;28;20198;-83
2021/12/07 15:23:34;;;;;;;9.37;3.63;;;;;;;;;;5057559;28;20197;-82
2021/12/07 15:26:02;;;;;;;8.57;3.23;;;;;;;;;;5059152;28;20198;-83
2021/12/07 15:28:29;;;;;;;12.57;2.80;;;;;;;;;;5053918;28;20213;-82
2021/12/07 15:30:59;;;;;;;10.17;2.83;;;;;;;;;;5059501;28;20202;-82
2021/12/07 15:33:32;;;;;;;12.93;3.20;;;;;;;;;;5061252;28;20224;-82
2021/12/07 15:36:22;;;;;;;9.63;2.77;;;;;;;;;;5053949;28;20209;-82
2021/12/07 15:38:51;;;;;;;8.93;2.70;;;;;;;;;;5060168;28;20225;-82
2021/12/07 15:41:29;;;;;;;8.10;4.43;;;;;;;;;;5051120;28;20197;-84
2021/12/07 15:44:02;;;;;;;8.00;3.50;;;;;;;;;;5049802;28;20496;-83
2021/12/07 16:03:18;;;;;;;4.03;2.07;;;;;;;;;;5041525;28;20236;-88
2021/12/07 16:05:52;;;;;;;4.80;2.10;;;;;;;;;;5071634;28;20234;-87
2021/12/07 16:08:25;;;;;;;4.80;2.20;;;;;;;;;;5071839;28;20210;-86
2021/12/07 16:27:31;;;;;;;6.67;3.30;;;;;;;;;;5009935;27;3429530;-84
2021/12/07 16:29:59;;;;;;;5.63;2.50;;;;;;;;;;5134145;27;20223;-86
2021/12/07 16:32:45;;;;;;;3.87;2.80;;;;;;;;;;5133444;28;20255;-82
2021/12/07 16:35:16;;;;;;;5.60;2.83;;;;;;;;;;5132675;28;20226;-87
2021/12/07 16:37:49;;;;;;;5.73;3.00;;;;;;;;;;5145101;22;20227;-81
2021/12/07 16:40:18;;;;;;;5.53;2.80;;;;;;;;;;5069351;28;20200;-81
2021/12/07 16:42:54;;;;;;;5.30;2.70;;;;;;;;;;5072373;28;20197;-81
2021/12/07 16:45:27;;;;;;;4.93;2.27;;;;;;;;;;5076003;28;20192;-81
2021/12/07 16:47:55;;;;;;;11.50;3.03;;;;;;;;;;5077102;28;20225;-81
2021/12/07 16:50:24;;;;;;;6.20;2.90;;;;;;;;;;5076480;28;20209;-81
2021/12/07 16:52:51;;;;;;;6.10;2.63;;;;;;;;;;5070013;28;20209;-81
2021/12/07 16:55:19;;;;;;;5.40;2.90;;;;;;;;;;5076235;28;20225;-81
2021/12/07 16:57:48;;;;;;;9.30;2.87;;;;;;;;;;5076021;28;20263;-81
2021/12/07 17:00:18;;;;;;;10.73;2.63;;;;;;;;;;5075487;28;20213;-81
2021/12/07 17:02:46;;;;;;;4.20;1.97;;;;;;;;;;5075447;28;20235;-81
2021/12/07 17:05:18;;;;;;;6.63;2.60;;;;;;;;;;5073169;28;20232;-81
2021/12/07 17:07:46;;;;;;;9.87;2.80;;;;;;;;;;5072397;28;20252;-81
2021/12/07 17:10:18;;;;;;;7.23;2.63;;;;;;;;;;5078490;28;20270;-81
2021/12/07 17:12:45;;;;;;;8.93;3.53;;;;;;;;;;5078294;28;20255;-81
2021/12/07 17:15:15;;;;;;;4.23;2.40;;;;;;;;;;5079550;28;20204;-81
2021/12/07 17:17:48;;;;;;;4.67;2.20;;;;;;;;;;5062125;28;20225;-80
2021/12/07 17:20:18;;;;;;;4.33;2.40;;;;;;;;;;5059406;28;20231;-80